Bhubaneswar, India

1:02 PM IST on June 21, 2018 (GMT +0530)
Bhubaneswar | | Change Station

Elev 148 ft 20.25 °N, 85.83 °E | Updated 32 minutes ago

Thunderstorm
Thunderstorm
93 °F
Feels Like 121 °F
N
17
Wind Variable Wind from West

Today
High -- | Low -- °F
--% Chance of Precip.
Yesterday
High -- | Low -- °F
Precip. -- in
Pressure 29.59 in
Visibility 1.9 miles
Clouds Mostly Cloudy 1800 ft
Few 3000 ft
Overcast 9000 ft
Heat Index 121 °F
Dew Point 84 °F
Humidity 75%
Rainfall 0.00 in
Snow Depth Not available.
5:07 AM 6:29 PM
First Quarter, 59% visible
METAR VEBS 210700Z 26015KT 3000 TS BKN018 FEW030CB OVC090 34/29 Q1002 TEMPO 1500 TSRA
Pressure 29.59 in
Visibility 1.9 miles
Clouds Mostly Cloudy 1800 ft
Few 3000 ft
Overcast 9000 ft
Heat Index 121 °F
Dew Point 84 °F
Humidity 75%
Rainfall 0.00 in
Snow Depth Not available.
5:07 AM 6:29 PM
First Quarter, 59% visible
METAR VEBS 210700Z 26015KT 3000 TS BKN018 FEW030CB OVC090 34/29 Q1002 TEMPO 1500 TSRA

Get Severe Weather Alerts

Thanks for signing up!

Be on the lookout for a verification email in your inbox.

You'll start receiving the daily forecast at 6 AM.

×

10-Day Weather Forecast

No radar image for this location.
×

Almanac

Astronomy

Jun. 21, 2018 Rise Set
Actual Time
Civil Twilight
Nautical Twilight
Astronomical Twilight
Moon
Length of Visible Light
Length of Day
Tomorrow will be .
, % of the Moon is Illuminated

Today's Extremes

Country Highs Country Lows

Community

WunderPhotos

Category 6

Welcome to Category 6. This is the collective home for Weather Underground's featured writeups by Dr. Jeff Masters (right), Bob Henson (left), Chris Burt, and other regular contributors.

Nearby

Air Quality

  Air Quality AQ Index Pollutant
Not available.

Snow Depth

Station Depth Elevation

Earthquake Activity

City Distance Mag. Time & Date
Minimum magnitude displayed is 2.5.

Coastal Water Temperatures

Place Temperature

Stations

Nearby Weather Stations

Station Location Temp. Windchill Dew Point Humidity Wind Precip. Elev Updated Type